Impacts TAF Board
For situational awareness. Not to be used for flight planning purposes.
IDs:

KDFW - Dallas-Ft Worth Intl, TX, US

Issued at 1120 UTC 10 Aug 2022
Updated at 1433 UTC 10 Aug 2022
Potential Impact None Slight Moderate High
Time1353Z 10/15Z 10/16Z 10/17Z 10/18Z 10/19Z 10/20Z 10/21Z 10/22Z 10/23Z 11/00Z 11/01Z 11/02Z 11/03Z>>
Type OBS PRVL PRVL PRVL PRVL PRVL PRVL PRVL PRVL PRVL PRVL PRVL PRVL PRVL
VIS 10 >6 >6 >6 >6 >6 >6 >6 >6 >6 >6 >6 >6 >6
CIG 95 -- -- -- 80 80 80 80 160 160 160 160 160 160
Cover BKN SCT SCT SCT BKN BKN BKN BKN BKN BKN BKN BKN BKN BKN
FltCat VFR VFR VFR VFR VFR VFR VFR VFR VFR VFR VFR VFR VFR VFR
WX -- -- -- -- VCTS VCTS VCTS VCTS -- -- -- -- -- --
WDir VRB 120 120 120 VRB VRB VRB VRB 180 180 180 180 180 180
WSpd 3 4 4 4 6 6 6 6 4 4 4 4 4 4
WGst -- -- -- -- -- -- -- -- -- -- -- -- -- --
WSHgt -- -- -- -- -- -- -- -- -- -- -- -- -- --
WSDir -- -- -- -- -- -- -- -- -- -- -- -- -- --
WSSpd -- -- -- -- -- -- -- -- -- -- -- -- -- --
Raw TAF
KDFW 101120Z 1012/1118 12004KT P6SM SCT120
  FM101800 VRB06KT P6SM VCTS BKN080CB
  FM102200 18004KT P6SM BKN160


Raw METAR
KDFW 101353Z VRB03KT 10SM BKN095 BKN250 28/21 A3007 RMK AO2 SLP173 T02830211
KDFW 101253Z COR 11004KT 10SM SCT120 SCT250 27/22 A3007 RMK AO2 SLP172 T02670217
KDFW 101153Z 11004KT 10SM FEW120 SCT250 25/21 A3005 RMK AO2 SLP166 T02500211 10272 20250 53010

METAR Board
Radar Display
Forecast Discussion
For situational awareness. Not to be used for flight planning purposes.